createdAt,value
2022-12-24T01:59:37.976Z,83.62
2022-12-24T02:22:29.218Z,83.54
2022-12-24T02:25:15.942Z,83.47
2022-12-24T02:27:54.098Z,83.33
2022-12-24T02:30:31.360Z,83.57
2022-12-24T02:33:03.139Z,83.70
2022-12-24T02:35:47.438Z,83.04
2022-12-24T02:38:29.052Z,83.42
2022-12-24T02:41:01.988Z,83.62
2022-12-24T02:43:38.457Z,83.60
2022-12-24T02:46:11.926Z,83.67
2022-12-24T02:48:42.372Z,83.65
2022-12-24T02:51:10.695Z,83.11
2022-12-24T02:53:38.094Z,83.38
2022-12-24T02:56:17.943Z,83.24
2022-12-24T02:59:39.643Z,83.06
2022-12-24T03:02:44.748Z,82.92
2022-12-24T03:05:35.199Z,82.78
2022-12-24T03:08:12.975Z,83.31
2022-12-24T03:10:52.111Z,83.39
2022-12-24T03:13:20.787Z,83.08
2022-12-24T03:15:48.111Z,83.09
2022-12-24T03:18:19.539Z,83.28
2022-12-24T03:20:53.082Z,83.17
2022-12-24T03:23:19.950Z,82.98
2022-12-24T03:25:46.617Z,82.92
2022-12-24T03:28:16.097Z,83.49
2022-12-24T03:30:44.873Z,82.95
2022-12-24T03:33:12.218Z,83.18
2022-12-24T03:35:39.032Z,83.28
2022-12-24T03:38:05.633Z,83.67
2022-12-24T03:40:32.164Z,83.15
2022-12-24T03:42:58.897Z,82.91
2022-12-24T03:45:25.817Z,82.94
2022-12-24T03:47:52.465Z,83.12
2022-12-24T03:50:18.943Z,82.53
2022-12-24T03:52:45.507Z,81.99
2022-12-24T03:55:11.902Z,82.86
2022-12-24T04:03:02.432Z,83.03
2022-12-24T04:05:28.985Z,83.43
2022-12-24T04:21:18.617Z,83.09
2022-12-24T04:23:45.260Z,82.68
2022-12-24T04:26:13.294Z,82.58
2022-12-24T04:28:41.117Z,82.90
2022-12-24T04:31:11.313Z,82.74
2022-12-24T04:33:38.357Z,82.44
2022-12-24T04:36:06.977Z,82.76
2022-12-24T04:57:20.378Z,82.21
2022-12-24T04:59:46.880Z,82.29
2022-12-24T05:02:13.606Z,82.71
2022-12-24T05:04:40.291Z,82.23
2022-12-24T05:07:06.908Z,82.12
2022-12-24T05:09:33.396Z,82.03
2022-12-24T05:12:00.021Z,81.58
2022-12-24T05:14:26.656Z,81.88
2022-12-24T05:16:53.206Z,81.78
2022-12-24T05:19:19.641Z,82.51
2022-12-24T05:27:03.419Z,82.18
2022-12-24T05:29:30.537Z,82.36
2022-12-24T05:31:56.951Z,82.43
2022-12-24T05:34:23.411Z,81.75
2022-12-24T05:36:49.887Z,82.51
2022-12-24T05:39:18.420Z,81.95
2022-12-24T05:41:46.059Z,82.25
2022-12-24T05:44:12.852Z,81.59
2022-12-24T05:46:39.741Z,82.15
2022-12-24T05:49:06.469Z,81.92
2022-12-24T05:51:32.995Z,81.46
2022-12-24T05:53:59.421Z,82.03
2022-12-24T05:56:26.410Z,81.56
2022-12-24T05:58:53.786Z,81.64
2022-12-24T06:01:21.774Z,81.49
2022-12-24T06:03:49.787Z,81.56
2022-12-24T06:06:21.085Z,81.73
2022-12-24T06:08:48.771Z,81.54
2022-12-24T06:11:17.380Z,81.36
2022-12-24T06:13:44.177Z,81.11
2022-12-24T06:16:18.241Z,81.52
2022-12-24T06:18:45.173Z,81.37
2022-12-24T06:21:12.990Z,81.29
2022-12-24T06:23:41.900Z,81.12
2022-12-24T06:26:11.556Z,81.12
2022-12-24T06:28:38.470Z,81.00
2022-12-24T06:31:06.631Z,80.83
2022-12-24T06:33:34.386Z,80.84
2022-12-24T06:36:01.135Z,80.96
2022-12-24T06:38:30.420Z,81.08
2022-12-24T06:40:56.995Z,81.38
2022-12-24T06:43:23.497Z,81.90
2022-12-24T06:53:55.353Z,81.50
2022-12-24T06:56:22.127Z,81.30
2022-12-24T06:58:49.043Z,81.85
2022-12-24T07:01:17.971Z,82.00
2022-12-24T07:03:44.950Z,81.69
2022-12-24T07:06:20.559Z,81.50
2022-12-24T07:11:24.057Z,80.88
2022-12-24T07:13:50.829Z,80.89
2022-12-24T07:16:18.243Z,81.39
2022-12-24T07:18:44.886Z,81.47
2022-12-24T07:21:11.374Z,80.98
2022-12-24T07:23:37.905Z,81.51
2022-12-24T07:26:05.686Z,81.07
2022-12-24T07:31:02.258Z,81.30
2022-12-24T07:42:18.539Z,81.41
2022-12-24T08:06:05.465Z,82.29
2022-12-24T09:03:14.774Z,80.86
2022-12-24T09:14:14.278Z,81.48
2022-12-24T09:16:40.784Z,80.83
2022-12-24T09:19:07.237Z,80.73
2022-12-24T09:24:20.667Z,81.31
2022-12-24T09:26:55.492Z,81.40
2022-12-24T09:29:24.086Z,81.27
2022-12-24T09:31:50.826Z,80.99
2022-12-24T09:34:17.376Z,81.58
2022-12-24T09:36:43.860Z,81.74
2022-12-24T09:39:10.421Z,81.50
2022-12-24T09:42:02.138Z,81.35
2022-12-24T09:44:48.117Z,80.85
2022-12-24T09:47:33.246Z,80.87
2022-12-24T09:50:03.042Z,80.65
2022-12-24T09:52:35.192Z,80.88
2022-12-24T09:55:18.027Z,81.02
2022-12-24T09:57:46.712Z,80.52
2022-12-24T10:00:35.874Z,81.00
2022-12-24T10:03:06.573Z,81.34
2022-12-24T10:06:02.379Z,80.86
2022-12-24T10:08:41.594Z,81.16
2022-12-24T10:11:42.740Z,81.18
2022-12-24T10:14:26.250Z,80.82
2022-12-24T10:16:58.707Z,81.21
2022-12-24T10:19:45.529Z,80.68
2022-12-24T10:22:56.584Z,80.77
2022-12-24T10:25:45.915Z,81.19
2022-12-24T10:28:16.138Z,81.19
2022-12-24T10:30:44.714Z,81.41
2022-12-24T10:33:20.097Z,80.93
2022-12-24T10:35:53.463Z,81.08
2022-12-24T10:38:19.876Z,80.85
2022-12-24T10:40:50.433Z,81.08
2022-12-24T10:43:22.777Z,81.29
2022-12-24T10:45:55.125Z,82.61
2022-12-24T10:48:29.374Z,81.63
2022-12-24T10:51:04.367Z,81.48
2022-12-24T10:53:51.688Z,81.75
2022-12-24T10:56:19.686Z,82.24
2022-12-24T10:58:51.989Z,81.46
2022-12-24T11:01:18.582Z,82.17
2022-12-24T11:03:45.387Z,81.83
2022-12-24T11:06:15.161Z,81.57
2022-12-24T11:08:44.649Z,81.14
2022-12-24T11:11:15.292Z,81.29
2022-12-24T11:13:53.061Z,80.78
2022-12-24T11:16:36.787Z,80.80
2022-12-24T11:19:05.893Z,81.27
2022-12-24T11:21:36.251Z,81.20
2022-12-24T11:24:26.223Z,81.56
2022-12-24T11:26:52.658Z,81.45
2022-12-24T11:29:27.478Z,81.09
2022-12-24T11:32:16.744Z,81.10
2022-12-24T11:34:44.111Z,81.17
2022-12-24T11:37:16.999Z,81.77
2022-12-24T11:39:49.525Z,80.50
2022-12-24T11:42:31.544Z,80.17
2022-12-24T11:45:00.635Z,80.44
2022-12-24T11:47:35.768Z,80.94
2022-12-24T11:50:31.994Z,80.88
2022-12-24T11:53:04.368Z,81.08
2022-12-24T11:56:00.178Z,80.67
2022-12-24T11:58:44.584Z,79.50
2022-12-24T12:01:30.000Z,79.64
2022-12-24T12:04:01.821Z,79.62
2022-12-24T12:06:44.738Z,79.91
2022-12-24T12:09:20.757Z,79.44
2022-12-24T12:11:52.726Z,79.18
2022-12-24T12:14:25.861Z,78.67
2022-12-24T12:17:31.369Z,78.92
2022-12-24T12:20:04.446Z,79.06
2022-12-24T12:23:09.179Z,78.87
2022-12-24T12:25:51.193Z,78.45
2022-12-24T12:28:27.033Z,78.85
2022-12-24T12:31:15.710Z,78.47
2022-12-24T12:33:55.624Z,79.31
2022-12-24T12:36:29.069Z,79.04
2022-12-24T12:38:55.516Z,79.28
2022-12-24T12:41:37.720Z,79.49
2022-12-24T12:44:28.196Z,79.96
2022-12-24T12:47:09.110Z,80.10
2022-12-24T12:50:09.567Z,80.26
2022-12-24T12:52:54.597Z,80.31
2022-12-24T12:55:32.326Z,79.78
2022-12-24T12:58:10.548Z,80.57
2022-12-24T13:00:41.592Z,79.98
2022-12-24T13:03:23.164Z,80.91
2022-12-24T13:06:23.631Z,80.45
2022-12-24T13:09:13.787Z,80.35
2022-12-24T13:12:03.036Z,79.91
2022-12-24T13:14:54.586Z,81.15
2022-12-24T13:17:41.293Z,80.21
2022-12-24T13:20:19.982Z,79.74
2022-12-24T13:23:01.828Z,80.34
2022-12-24T13:25:39.178Z,80.27
2022-12-24T13:28:20.743Z,80.45
2022-12-24T13:30:49.070Z,80.37
2022-12-24T13:33:34.166Z,80.29
2022-12-24T13:36:04.696Z,79.63
2022-12-24T13:38:57.816Z,79.42
2022-12-24T13:41:40.034Z,79.59
2022-12-24T13:44:09.132Z,80.32
2022-12-24T13:46:58.451Z,79.63
2022-12-24T13:49:33.197Z,79.86
2022-12-24T13:52:30.468Z,79.38
2022-12-24T13:54:56.901Z,79.69
2022-12-24T13:57:35.615Z,79.48
2022-12-24T14:00:04.965Z,80.29
2022-12-24T14:02:36.949Z,80.35
2022-12-24T14:05:21.183Z,79.41
2022-12-24T14:07:50.296Z,80.10
2022-12-24T14:10:28.313Z,80.49
2022-12-24T14:12:54.992Z,80.34
2022-12-24T14:15:49.310Z,80.69
2022-12-24T14:18:21.446Z,80.63
2022-12-24T14:20:53.901Z,80.46
2022-12-24T14:23:43.308Z,80.02
2022-12-24T14:26:17.119Z,79.88
2022-12-24T14:28:50.753Z,79.46
2022-12-24T14:31:18.867Z,79.85
2022-12-24T14:33:46.082Z,80.17
2022-12-24T14:36:18.331Z,79.90
2022-12-24T14:38:45.812Z,79.82
2022-12-24T14:41:26.140Z,80.40
2022-12-24T14:44:23.764Z,80.17
2022-12-24T14:46:56.188Z,79.88
2022-12-24T14:49:57.648Z,79.90
2022-12-24T14:53:05.401Z,80.33
2022-12-24T14:55:41.659Z,80.28
2022-12-24T14:58:25.444Z,80.12
2022-12-24T15:00:57.810Z,80.04
2022-12-24T15:03:28.957Z,80.18
2022-12-24T15:06:06.328Z,80.14
2022-12-24T15:08:40.646Z,80.58
2022-12-24T15:11:10.397Z,80.45
2022-12-24T15:13:40.495Z,80.39
2022-12-24T15:16:13.668Z,80.84
2022-12-24T15:18:48.164Z,80.53
2022-12-24T15:21:20.078Z,80.76
2022-12-24T15:23:52.101Z,80.80
2022-12-24T15:26:29.224Z,80.58
2022-12-24T15:29:03.324Z,81.69
2022-12-24T15:31:31.470Z,81.44
2022-12-24T15:33:59.591Z,81.48
2022-12-24T15:36:31.504Z,81.25
2022-12-24T15:39:00.672Z,81.36
2022-12-24T15:42:00.019Z,81.35
2022-12-24T15:44:30.018Z,81.05
2022-12-24T15:47:00.880Z,80.91
2022-12-24T15:49:32.331Z,80.67
2022-12-24T15:52:15.422Z,81.46
2022-12-24T15:54:45.154Z,81.15
2022-12-24T15:57:14.750Z,81.95
2022-12-24T15:59:41.283Z,81.71
2022-12-24T16:02:31.685Z,81.37
2022-12-24T16:05:18.133Z,81.24
2022-12-24T16:08:14.429Z,80.92
2022-12-24T16:10:47.402Z,81.42
2022-12-24T16:13:52.067Z,81.86
2022-12-24T16:16:21.416Z,81.72
2022-12-24T16:18:58.677Z,81.69
2022-12-24T16:21:35.989Z,81.37
2022-12-24T16:24:22.297Z,81.34
2022-12-24T16:26:49.139Z,80.78
2022-12-24T16:29:16.659Z,81.31
2022-12-24T16:31:47.309Z,81.27
2022-12-24T16:34:15.700Z,80.93
2022-12-24T16:36:46.227Z,80.76
2022-12-24T16:39:31.033Z,81.22
2022-12-24T16:42:18.530Z,80.70
2022-12-24T16:44:45.659Z,80.63
2022-12-24T16:47:21.742Z,80.56
2022-12-24T16:49:48.274Z,80.99
2022-12-24T16:52:22.185Z,80.78
2022-12-24T16:54:49.880Z,81.15
2022-12-24T16:57:17.372Z,81.19
2022-12-24T16:59:43.896Z,81.28
2022-12-24T17:02:15.080Z,81.33
2022-12-24T17:04:42.456Z,81.25
2022-12-24T17:07:11.516Z,80.72
2022-12-24T17:09:37.976Z,81.03
2022-12-24T17:12:04.703Z,80.89
2022-12-24T17:14:31.160Z,81.59
2022-12-24T17:16:57.699Z,81.28
2022-12-24T17:19:24.340Z,81.19
2022-12-24T17:21:50.915Z,81.64
2022-12-24T17:24:17.422Z,81.35
2022-12-24T17:26:44.532Z,81.48
2022-12-24T17:29:11.092Z,81.74
2022-12-24T17:31:40.851Z,82.02
2022-12-24T17:34:07.536Z,81.78
2022-12-24T17:36:34.482Z,81.53
2022-12-24T17:39:01.128Z,81.95
2022-12-24T17:41:27.573Z,81.76
2022-12-24T17:43:54.026Z,81.34
2022-12-24T17:46:22.922Z,81.64
2022-12-24T17:48:51.060Z,81.51
2022-12-24T17:51:20.745Z,81.39
2022-12-24T17:53:47.751Z,81.40
2022-12-24T17:56:15.382Z,81.90
2022-12-24T17:58:43.731Z,81.68
2022-12-24T18:01:15.672Z,82.28
2022-12-24T18:03:42.501Z,81.72
2022-12-24T18:06:11.003Z,81.56
2022-12-24T18:08:38.553Z,81.31
2022-12-24T18:11:24.536Z,81.50
2022-12-24T18:13:51.273Z,81.27
2022-12-24T18:16:26.065Z,81.30
2022-12-24T18:18:53.673Z,80.99
2022-12-24T18:21:22.581Z,81.71
2022-12-24T18:23:51.407Z,81.78
2022-12-24T18:26:19.699Z,81.18
2022-12-24T18:28:47.248Z,81.14
2022-12-24T18:31:16.738Z,80.89
2022-12-24T18:33:44.390Z,80.90
2022-12-24T18:36:11.718Z,81.11
2022-12-24T18:38:38.274Z,80.98
2022-12-24T18:41:07.104Z,81.08
2022-12-24T18:43:33.886Z,81.51
2022-12-24T18:46:06.411Z,81.70
2022-12-24T18:48:32.859Z,81.40
2022-12-24T18:51:00.112Z,81.58
2022-12-24T18:53:26.716Z,81.67
2022-12-24T18:55:53.446Z,81.99
2022-12-24T18:58:20.153Z,82.05
2022-12-24T19:00:47.099Z,81.80
2022-12-24T19:03:16.433Z,81.87
2022-12-24T19:05:43.397Z,82.30
2022-12-24T19:08:37.773Z,82.24
2022-12-24T19:10:56.615Z,82.31
2022-12-24T19:13:23.052Z,82.16
2022-12-24T19:15:49.490Z,81.91
2022-12-24T19:18:16.083Z,81.95
2022-12-24T19:20:42.603Z,82.25
2022-12-24T19:23:09.251Z,81.73
2022-12-24T19:25:36.271Z,81.84
2022-12-24T19:28:09.579Z,82.17
2022-12-24T19:30:38.155Z,82.27
2022-12-24T19:33:05.095Z,82.51
2022-12-24T19:35:31.878Z,82.59
2022-12-24T19:37:58.896Z,82.90
2022-12-24T19:40:26.148Z,82.58
2022-12-24T19:42:52.759Z,82.11
2022-12-24T19:45:21.059Z,82.16
2022-12-24T19:47:48.912Z,81.84
2022-12-24T19:50:16.667Z,81.95
2022-12-24T19:52:43.224Z,82.49
2022-12-24T19:55:11.190Z,82.66
2022-12-24T19:57:39.476Z,82.70
2022-12-24T20:00:07.184Z,82.83
2022-12-24T20:02:34.192Z,82.83
2022-12-24T20:05:00.850Z,82.55
2022-12-24T20:07:27.440Z,82.28
2022-12-24T20:09:54.022Z,82.83
2022-12-24T20:12:20.489Z,82.58
2022-12-24T20:14:46.934Z,82.50
2022-12-24T20:17:14.778Z,82.21
2022-12-24T20:19:41.284Z,82.39
2022-12-24T20:22:07.790Z,82.18
2022-12-24T20:24:34.394Z,82.47
2022-12-24T20:27:00.887Z,82.04
2022-12-24T20:29:27.451Z,82.46
2022-12-24T20:31:54.005Z,82.18
2022-12-24T20:34:20.719Z,82.03
2022-12-24T20:36:47.373Z,82.42
2022-12-24T20:39:13.828Z,82.34
2022-12-24T20:41:40.498Z,81.75
2022-12-24T20:44:07.056Z,82.28
2022-12-24T20:46:33.605Z,82.19
2022-12-24T20:49:00.238Z,82.44
2022-12-24T20:51:28.480Z,82.66
2022-12-24T20:53:57.824Z,82.34
2022-12-24T20:56:24.892Z,82.33
2022-12-24T20:58:51.601Z,81.97
2022-12-24T21:01:24.452Z,82.41
2022-12-24T21:03:52.823Z,82.16
2022-12-24T21:06:19.752Z,82.83
2022-12-24T21:08:49.450Z,82.75
2022-12-24T21:11:34.768Z,82.12
2022-12-24T21:14:02.068Z,82.48
2022-12-24T21:16:31.227Z,82.28
2022-12-24T21:18:57.741Z,81.96
2022-12-24T21:21:24.262Z,81.82
2022-12-24T21:23:50.861Z,82.09
2022-12-24T21:26:17.351Z,83.12
2022-12-24T21:28:45.370Z,82.69
2022-12-24T21:31:13.746Z,82.11
2022-12-24T21:33:41.663Z,82.62
2022-12-24T21:36:09.939Z,82.12
2022-12-24T21:38:36.467Z,82.01
2022-12-24T21:41:05.501Z,82.93
2022-12-24T21:43:34.613Z,82.38
2022-12-24T21:46:05.342Z,82.90
2022-12-24T21:48:50.530Z,82.58
2022-12-24T21:51:17.115Z,81.91
2022-12-24T21:54:02.484Z,82.01
2022-12-24T21:56:29.084Z,82.07
2022-12-24T21:58:55.537Z,82.15
2022-12-24T22:01:22.152Z,81.72
2022-12-24T22:03:52.170Z,81.98
2022-12-24T22:06:38.905Z,82.00
2022-12-24T22:09:24.067Z,82.39
2022-12-24T22:11:54.547Z,82.09
2022-12-24T22:14:21.843Z,82.05
2022-12-24T22:16:48.327Z,81.46
2022-12-24T22:19:14.945Z,81.41
2022-12-24T22:21:41.371Z,81.18
2022-12-24T22:24:08.296Z,81.44
2022-12-24T22:26:34.759Z,82.00
2022-12-24T22:29:04.668Z,81.51
2022-12-24T22:31:32.464Z,80.86
2022-12-24T22:33:59.208Z,81.51
2022-12-24T22:36:25.808Z,81.70
2022-12-24T22:38:52.286Z,81.36
2022-12-24T22:41:18.712Z,81.58
2022-12-24T22:43:45.178Z,81.14
2022-12-24T22:46:13.816Z,80.74
2022-12-24T22:48:41.952Z,81.46
2022-12-24T22:51:14.333Z,81.42
2022-12-24T22:53:41.296Z,80.93
2022-12-24T22:56:11.969Z,81.11
2022-12-24T22:58:38.463Z,80.80
2022-12-24T23:01:05.091Z,80.22
2022-12-24T23:03:31.791Z,80.28
2022-12-24T23:06:00.387Z,80.35
2022-12-24T23:08:27.755Z,80.43
2022-12-24T23:11:08.508Z,80.04
2022-12-24T23:13:57.178Z,80.32
2022-12-24T23:16:25.801Z,79.89
2022-12-24T23:18:52.498Z,80.05
2022-12-24T23:21:19.681Z,79.89
2022-12-24T23:23:46.729Z,79.92
2022-12-24T23:26:15.853Z,80.23
2022-12-24T23:28:42.534Z,80.00
2022-12-24T23:31:09.622Z,80.05
2022-12-24T23:33:36.579Z,80.04
2022-12-24T23:36:03.493Z,79.97
2022-12-24T23:38:30.241Z,79.88
2022-12-24T23:40:57.877Z,79.74
2022-12-24T23:43:24.911Z,80.36
2022-12-24T23:45:52.505Z,80.02
2022-12-24T23:48:19.701Z,80.67
2022-12-24T23:50:47.042Z,80.55
2022-12-24T23:53:15.051Z,80.75
2022-12-24T23:55:42.021Z,80.17
2022-12-24T23:58:10.041Z,80.45
